Time;durP1;ratioP1;P1;durP2;ratioP2;P2;SDS_P1;SDS_P2;PMS_P1;PMS_P2;Temp;Humidity;BMP_temperature;BMP_pressure;BME280_temperature;BME280_humidity;BME280_pressure;Samples;Min_cycle;Max_cycle;Signal;HPM_P1;HPM_P2
2021/04/03 00:02:11;;;;;;;16.40;3.20;;;;;;;;;;5076050;28;20036;-82
2021/04/03 00:04:37;;;;;;;19.63;2.88;;;;;;;;;;5093868;28;20038;-82
2021/04/03 00:07:03;;;;;;;22.90;3.33;;;;;;;;;;5093937;28;20047;-81
2021/04/03 00:09:29;;;;;;;18.70;2.78;;;;;;;;;;5059128;28;20043;-81
2021/04/03 00:11:55;;;;;;;17.73;3.58;;;;;;;;;;5075855;28;20404;-81
2021/04/03 00:14:21;;;;;;;16.55;2.50;;;;;;;;;;5093634;28;20044;-82
2021/04/03 00:16:47;;;;;;;19.02;2.80;;;;;;;;;;5075485;28;20543;-81
2021/04/03 00:19:13;;;;;;;21.70;3.08;;;;;;;;;;5093645;28;20040;-82
2021/04/03 00:21:39;;;;;;;19.60;3.50;;;;;;;;;;5093545;28;20476;-81
2021/04/03 00:24:06;;;;;;;26.65;3.35;;;;;;;;;;5075366;28;20040;-82
2021/04/03 00:26:32;;;;;;;15.38;2.60;;;;;;;;;;5093473;28;20044;-81
2021/04/03 00:28:58;;;;;;;15.52;2.47;;;;;;;;;;5093333;28;20115;-82
2021/04/03 00:31:24;;;;;;;20.65;3.33;;;;;;;;;;5093539;28;20128;-82
2021/04/03 00:33:51;;;;;;;22.75;3.38;;;;;;;;;;5093294;28;20040;-82
2021/04/03 00:36:17;;;;;;;21.40;3.35;;;;;;;;;;5058757;28;20042;-81
2021/04/03 00:38:43;;;;;;;23.73;3.05;;;;;;;;;;5092249;28;20044;-81
2021/04/03 00:41:10;;;;;;;21.27;3.22;;;;;;;;;;5075312;28;20032;-82
2021/04/03 00:43:36;;;;;;;22.70;3.80;;;;;;;;;;5075138;28;20048;-81
2021/04/03 00:46:02;;;;;;;21.45;3.08;;;;;;;;;;5074918;28;20036;-81
2021/04/03 00:48:28;;;;;;;22.80;3.60;;;;;;;;;;5093154;28;20445;-81
2021/04/03 00:50:54;;;;;;;20.65;3.22;;;;;;;;;;5093200;28;20419;-82
2021/04/03 00:53:21;;;;;;;20.50;2.83;;;;;;;;;;5075078;28;20044;-82
2021/04/03 00:55:47;;;;;;;18.90;2.85;;;;;;;;;;5058226;28;20089;-82
2021/04/03 00:58:14;;;;;;;21.45;3.25;;;;;;;;;;5074814;28;20040;-81
2021/04/03 01:00:40;;;;;;;15.15;3.40;;;;;;;;;;5093011;28;20055;-81
2021/04/03 01:03:06;;;;;;;21.40;3.63;;;;;;;;;;5075010;28;20079;-82
2021/04/03 01:05:33;;;;;;;24.13;3.80;;;;;;;;;;5092690;28;20472;-82
2021/04/03 01:07:59;;;;;;;26.02;4.47;;;;;;;;;;5092819;28;20032;-82
2021/04/03 01:10:32;;;;;;;23.95;3.58;;;;;;;;;;5092824;28;20552;-83
2021/04/03 01:13:04;;;;;;;25.10;3.17;;;;;;;;;;5075004;28;20115;-81
2021/04/03 01:15:39;;;;;;;26.52;3.50;;;;;;;;;;5074515;28;20039;-81
2021/04/03 01:18:09;;;;;;;18.98;2.92;;;;;;;;;;5092525;28;20067;-81
2021/04/03 01:20:40;;;;;;;23.98;3.40;;;;;;;;;;5074906;28;20032;-83
2021/04/03 01:23:06;;;;;;;20.48;3.47;;;;;;;;;;5074480;28;20067;-82
2021/04/03 01:25:47;;;;;;;20.95;3.53;;;;;;;;;;5092417;28;20044;-82
2021/04/03 01:28:36;;;;;;;23.05;3.33;;;;;;;;;;5074393;28;20040;-82
2021/04/03 01:31:02;;;;;;;28.60;4.68;;;;;;;;;;5074930;28;20096;-82
2021/04/03 01:33:28;;;;;;;19.85;3.55;;;;;;;;;;5057787;28;20035;-82
2021/04/03 01:35:55;;;;;;;24.85;3.20;;;;;;;;;;5057626;28;20101;-82
2021/04/03 01:38:24;;;;;;;20.90;3.30;;;;;;;;;;5074421;28;20483;-82
2021/04/03 01:40:51;;;;;;;22.67;3.40;;;;;;;;;;5074189;28;20036;-81
2021/04/03 01:43:18;;;;;;;33.90;4.03;;;;;;;;;;5092282;28;20302;-81
2021/04/03 01:45:44;;;;;;;25.52;3.80;;;;;;;;;;5074317;28;20468;-82
2021/04/03 01:48:10;;;;;;;32.92;4.07;;;;;;;;;;5074224;28;20060;-83
2021/04/03 01:50:40;;;;;;;29.00;3.55;;;;;;;;;;5080819;28;20381;-81
2021/04/03 01:53:06;;;;;;;34.50;3.83;;;;;;;;;;5080974;28;20051;-82
2021/04/03 01:55:33;;;;;;;21.63;2.88;;;;;;;;;;5081000;28;20044;-80
2021/04/03 01:57:59;;;;;;;19.98;3.67;;;;;;;;;;5080939;28;20036;-81
2021/04/03 02:00:26;;;;;;;35.38;4.55;;;;;;;;;;5098749;28;20106;-81
2021/04/03 02:02:53;;;;;;;26.30;3.97;;;;;;;;;;5098833;28;20096;-81
2021/04/03 02:05:19;;;;;;;22.70;4.13;;;;;;;;;;5080830;28;20036;-81
2021/04/03 02:07:45;;;;;;;25.90;4.15;;;;;;;;;;5080790;28;20471;-82
2021/04/03 02:10:12;;;;;;;21.25;3.75;;;;;;;;;;5080730;28;20036;-83
2021/04/03 02:12:38;;;;;;;26.80;3.38;;;;;;;;;;5080807;28;20085;-81
2021/04/03 02:15:04;;;;;;;30.45;4.53;;;;;;;;;;5098542;28;20532;-82
2021/04/03 02:17:30;;;;;;;29.35;3.60;;;;;;;;;;5098755;28;20039;-81
2021/04/03 02:19:56;;;;;;;34.92;4.60;;;;;;;;;;5098684;28;20483;-82
2021/04/03 02:22:23;;;;;;;23.70;4.10;;;;;;;;;;5080702;28;20498;-81
2021/04/03 02:24:49;;;;;;;21.60;3.78;;;;;;;;;;5098543;28;20040;-82
2021/04/03 02:27:15;;;;;;;26.67;4.35;;;;;;;;;;5080731;28;20186;-82
2021/04/03 02:29:41;;;;;;;26.08;4.53;;;;;;;;;;5080514;28;20051;-82
2021/04/03 02:32:07;;;;;;;27.58;3.75;;;;;;;;;;5080605;28;20089;-81
2021/04/03 02:34:33;;;;;;;29.13;3.65;;;;;;;;;;5098597;28;20111;-82
2021/04/03 02:36:59;;;;;;;33.10;4.43;;;;;;;;;;5098568;28;20123;-80
2021/04/03 02:39:25;;;;;;;33.13;4.70;;;;;;;;;;5098469;28;20036;-80
2021/04/03 02:42:01;;;;;;;24.35;3.40;;;;;;;;;;5098467;28;20036;-81
2021/04/03 02:44:27;;;;;;;28.35;4.32;;;;;;;;;;5098293;28;20062;-82
2021/04/03 02:47:05;;;;;;;30.98;4.32;;;;;;;;;;5098287;28;20565;-82
2021/04/03 02:49:35;;;;;;;31.77;4.30;;;;;;;;;;5098613;28;20495;-81
2021/04/03 02:52:01;;;;;;;24.48;4.13;;;;;;;;;;5080620;28;20074;-82
2021/04/03 02:54:27;;;;;;;30.95;4.68;;;;;;;;;;5098282;28;20067;-81
2021/04/03 02:56:56;;;;;;;30.45;4.00;;;;;;;;;;5098127;28;20048;-82
2021/04/03 02:59:25;;;;;;;29.08;4.35;;;;;;;;;;5080466;28;20039;-82
2021/04/03 03:01:52;;;;;;;27.13;4.40;;;;;;;;;;5094188;28;20085;-82
2021/04/03 03:04:18;;;;;;;24.35;3.65;;;;;;;;;;5077101;28;20040;-82
2021/04/03 03:06:47;;;;;;;33.28;4.35;;;;;;;;;;5095371;28;20043;-84
2021/04/03 03:09:17;;;;;;;32.10;3.92;;;;;;;;;;5076856;28;20035;-87
2021/04/03 03:11:44;;;;;;;22.13;3.63;;;;;;;;;;5060329;28;20036;-80
2021/04/03 03:14:12;;;;;;;28.48;3.92;;;;;;;;;;5060321;28;20115;-82
2021/04/03 03:16:38;;;;;;;21.83;3.50;;;;;;;;;;5094721;28;20040;-83
2021/04/03 03:19:04;;;;;;;23.65;3.97;;;;;;;;;;5076989;28;20032;-82
2021/04/03 03:21:30;;;;;;;32.80;4.95;;;;;;;;;;5076782;28;20032;-82
2021/04/03 03:23:56;;;;;;;31.15;5.05;;;;;;;;;;5059879;28;20040;-82
2021/04/03 03:26:22;;;;;;;34.85;4.57;;;;;;;;;;5076104;28;20047;-82
2021/04/03 03:28:51;;;;;;;28.50;4.00;;;;;;;;;;5076713;28;20040;-82
2021/04/03 03:31:17;;;;;;;34.33;5.00;;;;;;;;;;5094510;28;20506;-82
2021/04/03 03:33:43;;;;;;;25.83;4.38;;;;;;;;;;5076022;28;20052;-82
2021/04/03 03:36:09;;;;;;;27.65;3.97;;;;;;;;;;5059861;28;20051;-82
2021/04/03 03:38:35;;;;;;;25.17;3.20;;;;;;;;;;5076464;28;20043;-82
2021/04/03 03:41:02;;;;;;;31.63;5.35;;;;;;;;;;5076505;28;20452;-82
2021/04/03 03:43:28;;;;;;;37.50;4.80;;;;;;;;;;5076407;28;20039;-82
2021/04/03 03:45:54;;;;;;;29.25;3.92;;;;;;;;;;5076235;28;20043;-82
2021/04/03 03:48:20;;;;;;;28.13;3.95;;;;;;;;;;5076248;28;20074;-83
2021/04/03 03:50:46;;;;;;;26.75;5.03;;;;;;;;;;5076292;28;20039;-82
2021/04/03 03:53:12;;;;;;;30.67;4.47;;;;;;;;;;5093999;28;20616;-81
2021/04/03 03:55:38;;;;;;;39.22;4.57;;;;;;;;;;5076245;28;20119;-82
2021/04/03 03:58:05;;;;;;;25.33;3.97;;;;;;;;;;5094078;28;20047;-81
2021/04/03 04:00:31;;;;;;;30.98;4.60;;;;;;;;;;5093949;28;20065;-83
2021/04/03 04:02:57;;;;;;;32.15;4.70;;;;;;;;;;5076005;28;20451;-82
2021/04/03 04:05:23;;;;;;;26.98;4.47;;;;;;;;;;5093655;28;20074;-81
2021/04/03 04:07:49;;;;;;;31.63;4.13;;;;;;;;;;5093649;28;20057;-82
2021/04/03 04:10:15;;;;;;;22.98;4.20;;;;;;;;;;5093659;28;20039;-81
2021/04/03 04:12:41;;;;;;;31.98;5.07;;;;;;;;;;5075692;28;20475;-81
2021/04/03 04:15:08;;;;;;;30.08;4.40;;;;;;;;;;5075719;28;20101;-82
2021/04/03 04:17:34;;;;;;;31.40;4.70;;;;;;;;;;5059048;28;20047;-82
2021/04/03 04:20:00;;;;;;;31.85;4.82;;;;;;;;;;5075624;28;20047;-81
2021/04/03 04:22:26;;;;;;;25.75;3.60;;;;;;;;;;5075388;28;20043;-82
2021/04/03 04:24:52;;;;;;;37.60;5.63;;;;;;;;;;5093433;28;20040;-81
2021/04/03 04:27:18;;;;;;;24.48;4.25;;;;;;;;;;5093409;28;20044;-81
2021/04/03 04:29:44;;;;;;;40.67;4.63;;;;;;;;;;5075467;28;20063;-81
2021/04/03 04:32:10;;;;;;;32.10;4.40;;;;;;;;;;5093448;28;20032;-82
2021/04/03 04:34:37;;;;;;;34.92;4.30;;;;;;;;;;5093509;28;20047;-81
2021/04/03 04:37:03;;;;;;;22.02;4.68;;;;;;;;;;5075188;28;20043;-82
2021/04/03 04:39:29;;;;;;;33.17;4.25;;;;;;;;;;5093170;28;20070;-82
2021/04/03 04:41:55;;;;;;;27.63;3.88;;;;;;;;;;5075117;28;20043;-82
2021/04/03 04:44:21;;;;;;;32.70;4.35;;;;;;;;;;5058576;28;20040;-82
2021/04/03 04:46:47;;;;;;;38.60;3.92;;;;;;;;;;5092913;28;20608;-82
2021/04/03 04:49:13;;;;;;;31.45;4.63;;;;;;;;;;5092969;28;20035;-83
2021/04/03 04:51:39;;;;;;;32.88;4.97;;;;;;;;;;5093209;28;20119;-83
2021/04/03 04:54:05;;;;;;;27.65;3.78;;;;;;;;;;5093125;28;20070;-82
2021/04/03 04:56:31;;;;;;;31.83;4.38;;;;;;;;;;5074949;28;20047;-81
2021/04/03 04:59:18;;;;;;;37.83;4.93;;;;;;;;;;5077985;28;20080;-81
2021/04/03 05:01:44;;;;;;;24.50;4.18;;;;;;;;;;5092713;28;20117;-80
2021/04/03 05:04:10;;;;;;;27.52;4.88;;;;;;;;;;5092863;28;20040;-82
2021/04/03 05:06:36;;;;;;;35.00;4.75;;;;;;;;;;5074824;28;20043;-83
2021/04/03 05:09:02;;;;;;;26.42;3.75;;;;;;;;;;5074803;28;20064;-82
2021/04/03 05:11:28;;;;;;;32.95;4.78;;;;;;;;;;5092788;28;20036;-81
2021/04/03 05:13:54;;;;;;;25.65;4.22;;;;;;;;;;5074679;28;20537;-81
2021/04/03 05:16:20;;;;;;;31.45;4.43;;;;;;;;;;5092340;28;20032;-82
2021/04/03 05:18:46;;;;;;;27.13;4.00;;;;;;;;;;5092650;28;20047;-81
2021/04/03 05:21:12;;;;;;;33.03;4.40;;;;;;;;;;5092727;28;20502;-82
2021/04/03 05:23:38;;;;;;;26.38;4.40;;;;;;;;;;5074080;28;20040;-83
2021/04/03 05:26:04;;;;;;;31.65;4.85;;;;;;;;;;5057854;28;20043;-82
2021/04/03 05:28:30;;;;;;;28.25;4.30;;;;;;;;;;5092468;28;20040;-82
2021/04/03 05:30:56;;;;;;;28.98;4.60;;;;;;;;;;5074394;28;20097;-82
2021/04/03 05:33:22;;;;;;;27.65;4.70;;;;;;;;;;5092402;28;20036;-81
2021/04/03 05:35:48;;;;;;;31.20;4.20;;;;;;;;;;5057689;28;20126;-83
2021/04/03 05:38:15;;;;;;;37.22;4.68;;;;;;;;;;5092524;28;20031;-82
2021/04/03 05:40:41;;;;;;;30.50;4.72;;;;;;;;;;5074753;28;20036;-83
2021/04/03 05:43:07;;;;;;;31.23;4.10;;;;;;;;;;5074297;28;20047;-81
2021/04/03 05:45:35;;;;;;;35.38;5.07;;;;;;;;;;5074141;28;20032;-81
2021/04/03 05:48:01;;;;;;;35.33;5.22;;;;;;;;;;5074129;28;20048;-81
2021/04/03 05:50:27;;;;;;;23.98;4.07;;;;;;;;;;5074190;28;20123;-81
2021/04/03 05:52:54;;;;;;;28.30;4.22;;;;;;;;;;5057557;28;20032;-83
2021/04/03 05:55:20;;;;;;;23.13;3.80;;;;;;;;;;5092106;28;20305;-82
2021/04/03 05:57:46;;;;;;;21.02;4.32;;;;;;;;;;5074166;28;20101;-85
2021/04/03 06:00:13;;;;;;;25.92;4.13;;;;;;;;;;5074300;28;20407;-83
2021/04/03 06:02:40;;;;;;;29.15;3.92;;;;;;;;;;5074265;28;20040;-81
2021/04/03 06:05:06;;;;;;;30.92;4.72;;;;;;;;;;5074282;28;20097;-81
2021/04/03 06:07:33;;;;;;;22.05;4.20;;;;;;;;;;5074199;28;20036;-80
2021/04/03 06:10:02;;;;;;;27.38;4.70;;;;;;;;;;5073959;28;20040;-80
2021/04/03 06:12:46;;;;;;;34.08;4.85;;;;;;;;;;5074215;28;20070;-80
2021/04/03 06:15:12;;;;;;;25.55;4.97;;;;;;;;;;5057577;28;20058;-81
2021/04/03 06:17:38;;;;;;;31.00;5.78;;;;;;;;;;5091894;28;20040;-81
2021/04/03 06:20:05;;;;;;;36.97;4.88;;;;;;;;;;5074081;28;20429;-79
2021/04/03 06:23:00;;;;;;;34.63;4.72;;;;;;;;;;5091894;28;20036;-79
2021/04/03 06:25:26;;;;;;;35.55;5.30;;;;;;;;;;5072658;28;20109;-82
2021/04/03 06:28:05;;;;;;;27.38;4.40;;;;;;;;;;5073930;28;20112;-82
2021/04/03 06:30:35;;;;;;;31.73;5.65;;;;;;;;;;5057250;28;20037;-80
2021/04/03 06:33:17;;;;;;;31.08;4.30;;;;;;;;;;5091737;28;20088;-79
2021/04/03 06:35:43;;;;;;;36.25;4.82;;;;;;;;;;5092233;28;20176;-81
2021/04/03 06:38:19;;;;;;;35.33;5.13;;;;;;;;;;5060858;28;20028;-83
2021/04/03 06:40:46;;;;;;;24.13;4.15;;;;;;;;;;5061355;28;20048;-84
2021/04/03 06:43:16;;;;;;;37.92;5.40;;;;;;;;;;5077661;28;20083;-82
2021/04/03 06:45:44;;;;;;;29.58;4.75;;;;;;;;;;5095412;28;20483;-83
2021/04/03 06:48:10;;;;;;;35.45;5.57;;;;;;;;;;5077052;28;20507;-82
2021/04/03 06:50:37;;;;;;;28.73;5.22;;;;;;;;;;5095420;28;20510;-82
2021/04/03 06:53:05;;;;;;;25.75;5.03;;;;;;;;;;5077322;28;20032;-82
2021/04/03 06:55:31;;;;;;;35.15;5.00;;;;;;;;;;5060481;28;20067;-84
2021/04/03 06:57:57;;;;;;;26.85;4.78;;;;;;;;;;5077221;28;20036;-85
2021/04/03 07:00:25;;;;;;;35.28;5.50;;;;;;;;;;5060837;28;20043;-87
2021/04/03 07:02:58;;;;;;;31.25;5.13;;;;;;;;;;5077121;28;20113;-87
2021/04/03 07:05:25;;;;;;;28.15;4.65;;;;;;;;;;5076898;28;20040;-80
2021/04/03 07:07:51;;;;;;;34.58;4.57;;;;;;;;;;5095090;28;20036;-84
2021/04/03 07:10:17;;;;;;;30.40;4.72;;;;;;;;;;5060568;28;20035;-85
2021/04/03 07:12:44;;;;;;;25.63;4.75;;;;;;;;;;5060357;28;20479;-84
2021/04/03 07:15:10;;;;;;;23.27;4.18;;;;;;;;;;5094715;28;20040;-84
2021/04/03 07:17:43;;;;;;;31.92;4.50;;;;;;;;;;5076817;28;20043;-85
2021/04/03 07:20:16;;;;;;;24.92;4.90;;;;;;;;;;5094892;28;20093;-82
2021/04/03 07:22:44;;;;;;;30.38;4.72;;;;;;;;;;5076867;28;20062;-84
2021/04/03 07:25:12;;;;;;;29.00;4.43;;;;;;;;;;5077267;28;20114;-84
2021/04/03 07:27:42;;;;;;;33.15;5.18;;;;;;;;;;5094569;28;20119;-84
2021/04/03 07:30:09;;;;;;;37.90;4.85;;;;;;;;;;5076749;28;20043;-84
2021/04/03 07:32:42;;;;;;;27.90;4.93;;;;;;;;;;5076540;28;20043;-83
2021/04/03 07:35:15;;;;;;;25.77;4.47;;;;;;;;;;5077091;28;20032;-83
2021/04/03 07:37:41;;;;;;;32.65;5.45;;;;;;;;;;5059953;28;20483;-84
2021/04/03 07:40:08;;;;;;;26.98;4.40;;;;;;;;;;5076379;28;20038;-83
2021/04/03 07:42:37;;;;;;;28.63;5.78;;;;;;;;;;5094443;28;20036;-84
2021/04/03 07:45:04;;;;;;;36.25;5.18;;;;;;;;;;5059563;28;20040;-85
2021/04/03 07:47:30;;;;;;;34.95;5.22;;;;;;;;;;5075335;28;20051;-84
2021/04/03 07:49:56;;;;;;;25.58;4.72;;;;;;;;;;5094231;28;20491;-84
2021/04/03 07:52:41;;;;;;;35.97;5.25;;;;;;;;;;5076236;28;20048;-84
2021/04/03 07:55:28;;;;;;;30.38;5.15;;;;;;;;;;5094101;28;20169;-85
2021/04/03 07:57:54;;;;;;;28.58;4.75;;;;;;;;;;5087026;28;20075;-82
2021/04/03 08:00:23;;;;;;;29.17;4.57;;;;;;;;;;5076289;28;20036;-83
2021/04/03 08:02:49;;;;;;;46.08;5.05;;;;;;;;;;5094117;28;20036;-83
2021/04/03 08:05:16;;;;;;;29.70;4.43;;;;;;;;;;5075838;28;20066;-83
2021/04/03 08:07:41;;;;;;;33.40;4.85;;;;;;;;;;5093603;28;20058;-83
2021/04/03 08:10:17;;;;;;;30.45;5.40;;;;;;;;;;5059155;28;20047;-84
2021/04/03 08:12:43;;;;;;;22.55;4.88;;;;;;;;;;5075889;28;20128;-84
2021/04/03 08:15:10;;;;;;;36.70;5.05;;;;;;;;;;5075637;28;20085;-84
2021/04/03 08:17:36;;;;;;;36.47;5.05;;;;;;;;;;5075479;28;20491;-83
2021/04/03 08:20:02;;;;;;;21.60;4.85;;;;;;;;;;5093596;28;20051;-84
2021/04/03 08:22:28;;;;;;;29.33;4.53;;;;;;;;;;5075547;28;20042;-82
2021/04/03 08:24:55;;;;;;;27.52;4.78;;;;;;;;;;5075680;28;20071;-82
2021/04/03 08:27:30;;;;;;;30.38;4.30;;;;;;;;;;5058908;28;20059;-82
2021/04/03 08:29:57;;;;;;;27.85;4.45;;;;;;;;;;5093806;28;20040;-82
2021/04/03 08:32:23;;;;;;;28.08;5.57;;;;;;;;;;5059188;28;20161;-82
2021/04/03 08:34:49;;;;;;;28.00;5.32;;;;;;;;;;5075603;28;20489;-83
2021/04/03 08:37:15;;;;;;;23.23;4.20;;;;;;;;;;5075694;28;20059;-82
2021/04/03 08:39:41;;;;;;;20.30;4.10;;;;;;;;;;5075649;28;20123;-82
2021/04/03 08:42:07;;;;;;;24.00;3.92;;;;;;;;;;5075699;28;20036;-82
2021/04/03 08:44:33;;;;;;;17.77;4.40;;;;;;;;;;5075490;28;20107;-81
2021/04/03 08:47:00;;;;;;;24.35;4.53;;;;;;;;;;5093100;28;21152;-82
2021/04/03 08:49:31;;;;;;;27.95;4.20;;;;;;;;;;5093392;28;20046;-81
2021/04/03 08:51:57;;;;;;;23.75;4.28;;;;;;;;;;5058873;28;20544;-81
2021/04/03 08:54:23;;;;;;;23.23;4.32;;;;;;;;;;5075237;28;20036;-81
2021/04/03 08:56:49;;;;;;;23.95;4.50;;;;;;;;;;5093116;28;20551;-82
2021/04/03 08:59:16;;;;;;;19.35;3.65;;;;;;;;;;5092200;28;20063;-82
2021/04/03 09:01:43;;;;;;;19.92;3.80;;;;;;;;;;5075055;28;20072;-82
2021/04/03 09:04:10;;;;;;;24.23;4.63;;;;;;;;;;5075024;28;20445;-82
2021/04/03 09:06:46;;;;;;;22.58;4.68;;;;;;;;;;5075009;28;20056;-82
2021/04/03 09:09:17;;;;;;;20.58;3.88;;;;;;;;;;5075004;28;20044;-83
2021/04/03 09:11:52;;;;;;;20.45;4.25;;;;;;;;;;5075751;28;20058;-81
2021/04/03 09:14:27;;;;;;;20.42;4.05;;;;;;;;;;5092777;28;20032;-82
2021/04/03 09:16:53;;;;;;;22.73;3.58;;;;;;;;;;5092713;28;20123;-82
2021/04/03 09:19:26;;;;;;;20.67;3.85;;;;;;;;;;5074869;28;20044;-82
2021/04/03 09:21:53;;;;;;;23.23;3.67;;;;;;;;;;5058373;28;20111;-82
2021/04/03 09:24:38;;;;;;;19.33;4.05;;;;;;;;;;5057979;28;20051;-83
2021/04/03 09:27:08;;;;;;;18.73;4.30;;;;;;;;;;5074678;28;20085;-81
2021/04/03 09:29:34;;;;;;;20.40;3.78;;;;;;;;;;5092713;28;20043;-81
2021/04/03 09:32:03;;;;;;;16.95;3.80;;;;;;;;;;5092591;28;20036;-81
2021/04/03 09:34:33;;;;;;;17.15;4.03;;;;;;;;;;5074525;28;20038;-82
2021/04/03 09:37:10;;;;;;;19.80;4.15;;;;;;;;;;5074495;28;20054;-81
2021/04/03 09:39:43;;;;;;;16.75;3.78;;;;;;;;;;5092582;28;20115;-81
2021/04/03 09:42:13;;;;;;;20.60;4.00;;;;;;;;;;5092488;28;20090;-82
2021/04/03 09:44:39;;;;;;;15.27;3.42;;;;;;;;;;5074628;28;20040;-82
2021/04/03 09:47:05;;;;;;;18.25;4.10;;;;;;;;;;5074349;28;20129;-82
2021/04/03 09:49:31;;;;;;;18.23;3.95;;;;;;;;;;5092471;28;20043;-81
2021/04/03 09:51:57;;;;;;;21.20;3.80;;;;;;;;;;5074707;28;20032;-80
2021/04/03 09:54:23;;;;;;;24.70;4.18;;;;;;;;;;5092304;28;20036;-81
2021/04/03 09:56:50;;;;;;;22.27;4.10;;;;;;;;;;5074420;28;20475;-81
2021/04/03 09:59:16;;;;;;;23.75;4.45;;;;;;;;;;5092246;28;20165;-81
2021/04/03 10:01:42;;;;;;;21.27;4.45;;;;;;;;;;5092274;28;20328;-81
2021/04/03 10:04:08;;;;;;;22.45;4.90;;;;;;;;;;5074396;28;20032;-81
2021/04/03 10:06:34;;;;;;;19.77;3.85;;;;;;;;;;5057712;28;20044;-82
2021/04/03 10:09:00;;;;;;;22.05;3.78;;;;;;;;;;5092230;28;20032;-82
2021/04/03 10:11:26;;;;;;;13.77;3.50;;;;;;;;;;5095880;28;20059;-82
2021/04/03 10:13:52;;;;;;;20.85;4.38;;;;;;;;;;5078140;28;20085;-83
2021/04/03 10:16:18;;;;;;;20.05;3.90;;;;;;;;;;5078084;28;20040;-83
2021/04/03 10:18:48;;;;;;;19.00;3.70;;;;;;;;;;5078168;28;20490;-84
2021/04/03 10:21:14;;;;;;;16.73;4.30;;;;;;;;;;5078085;28;20115;-82
2021/04/03 10:23:40;;;;;;;17.95;3.72;;;;;;;;;;5096013;28;20032;-82
2021/04/03 10:26:06;;;;;;;16.75;3.47;;;;;;;;;;5077731;28;20086;-82
2021/04/03 10:28:32;;;;;;;18.27;4.07;;;;;;;;;;5077431;28;20044;-81
2021/04/03 10:30:58;;;;;;;20.83;4.70;;;;;;;;;;5060988;28;20483;-81
2021/04/03 10:33:24;;;;;;;22.98;4.28;;;;;;;;;;5077874;28;20107;-83
2021/04/03 10:35:50;;;;;;;21.38;3.65;;;;;;;;;;5077925;28;20166;-82
2021/04/03 10:38:16;;;;;;;18.98;3.28;;;;;;;;;;5095848;28;20165;-82
2021/04/03 10:40:42;;;;;;;15.07;3.67;;;;;;;;;;5077799;28;20466;-81
2021/04/03 10:43:08;;;;;;;18.75;4.07;;;;;;;;;;5061145;28;20551;-82
2021/04/03 10:45:34;;;;;;;16.27;3.10;;;;;;;;;;5060837;28;20046;-82
2021/04/03 10:48:01;;;;;;;15.90;3.60;;;;;;;;;;5077489;28;20406;-82
2021/04/03 10:50:27;;;;;;;23.95;4.20;;;;;;;;;;5077593;28;20040;-85
2021/04/03 10:52:53;;;;;;;18.38;3.42;;;;;;;;;;5095557;28;20036;-85
2021/04/03 10:55:19;;;;;;;14.45;3.53;;;;;;;;;;5095353;28;20396;-83
2021/04/03 10:57:45;;;;;;;17.33;3.30;;;;;;;;;;5060788;28;20123;-81
2021/04/03 11:00:11;;;;;;;20.17;3.88;;;;;;;;;;5095240;28;20399;-81
2021/04/03 11:02:37;;;;;;;22.67;3.45;;;;;;;;;;5077152;28;20476;-82
2021/04/03 11:05:04;;;;;;;18.13;3.50;;;;;;;;;;5095312;28;20068;-84
2021/04/03 11:07:30;;;;;;;14.98;3.53;;;;;;;;;;5077458;28;20039;-81
2021/04/03 11:09:56;;;;;;;18.02;3.20;;;;;;;;;;5095512;28;20044;-81
2021/04/03 11:12:22;;;;;;;17.77;3.35;;;;;;;;;;5095154;28;20032;-81
2021/04/03 11:14:48;;;;;;;15.77;3.00;;;;;;;;;;5095413;28;20032;-81
2021/04/03 11:17:14;;;;;;;18.10;3.22;;;;;;;;;;5095079;28;20063;-82
2021/04/03 11:19:40;;;;;;;20.17;3.50;;;;;;;;;;5095139;28;20044;-83
2021/04/03 11:22:07;;;;;;;19.55;3.28;;;;;;;;;;5094060;28;20548;-82
2021/04/03 11:24:34;;;;;;;14.68;3.20;;;;;;;;;;5060180;28;20036;-81
2021/04/03 11:27:00;;;;;;;16.20;3.00;;;;;;;;;;5077262;28;20503;-82
2021/04/03 11:29:26;;;;;;;10.18;2.97;;;;;;;;;;5076776;28;20534;-82
2021/04/03 11:31:52;;;;;;;18.42;3.63;;;;;;;;;;5076793;28;20468;-84
2021/04/03 11:34:18;;;;;;;12.38;2.97;;;;;;;;;;5076701;28;20036;-83
2021/04/03 11:36:44;;;;;;;20.38;3.83;;;;;;;;;;5094493;28;20600;-83
2021/04/03 11:39:10;;;;;;;16.15;3.50;;;;;;;;;;5076505;28;20069;-81
2021/04/03 11:41:36;;;;;;;13.90;3.17;;;;;;;;;;5074108;28;20039;-86
2021/04/03 11:44:03;;;;;;;13.82;3.35;;;;;;;;;;5046740;28;20048;-82
2021/04/03 11:46:29;;;;;;;12.65;3.95;;;;;;;;;;5060889;28;20434;-83
2021/04/03 11:48:55;;;;;;;15.38;2.90;;;;;;;;;;5055666;28;20381;-83
2021/04/03 11:51:21;;;;;;;15.90;3.17;;;;;;;;;;5072706;28;20040;-83
2021/04/03 11:53:48;;;;;;;17.20;3.13;;;;;;;;;;5073655;28;20498;-84
2021/04/03 11:56:14;;;;;;;24.15;3.88;;;;;;;;;;5072412;28;20066;-84
2021/04/03 11:58:40;;;;;;;17.52;3.58;;;;;;;;;;5073694;28;20219;-84
2021/04/03 12:01:06;;;;;;;14.15;2.88;;;;;;;;;;5072594;28;20040;-84
2021/04/03 12:03:32;;;;;;;16.65;3.10;;;;;;;;;;5055952;28;20367;-84
2021/04/03 12:05:58;;;;;;;15.57;2.63;;;;;;;;;;5055696;28;20029;-83
2021/04/03 12:08:27;;;;;;;12.80;2.80;;;;;;;;;;5073435;28;20071;-84
2021/04/03 12:10:53;;;;;;;14.23;2.80;;;;;;;;;;5072269;28;20040;-84
2021/04/03 12:13:19;;;;;;;14.02;2.97;;;;;;;;;;5073473;28;20037;-84
2021/04/03 12:15:45;;;;;;;15.82;2.83;;;;;;;;;;5072117;28;20060;-84
2021/04/03 12:18:12;;;;;;;16.40;2.70;;;;;;;;;;5072216;28;20032;-83
2021/04/03 12:20:38;;;;;;;13.40;3.33;;;;;;;;;;5055303;28;20037;-85
2021/04/03 12:23:04;;;;;;;12.75;2.65;;;;;;;;;;5072272;28;20111;-85
2021/04/03 12:25:30;;;;;;;12.32;2.90;;;;;;;;;;5038187;28;20540;-82
2021/04/03 12:27:56;;;;;;;16.98;3.00;;;;;;;;;;5073160;28;20106;-81
2021/04/03 12:30:22;;;;;;;10.73;3.15;;;;;;;;;;5054807;28;20554;-84
2021/04/03 12:32:48;;;;;;;11.85;2.65;;;;;;;;;;5054746;28;20547;-84
2021/04/03 12:35:15;;;;;;;11.55;2.38;;;;;;;;;;5071744;28;20120;-84
2021/04/03 12:37:41;;;;;;;14.43;2.67;;;;;;;;;;5071724;28;20040;-84
2021/04/03 12:40:07;;;;;;;12.98;2.10;;;;;;;;;;5071580;28;20045;-84
2021/04/03 12:42:33;;;;;;;13.55;2.72;;;;;;;;;;5071747;28;20040;-84
2021/04/03 12:45:00;;;;;;;12.45;2.95;;;;;;;;;;5071543;28;20032;-85
2021/04/03 12:47:26;;;;;;;9.02;2.28;;;;;;;;;;5054715;28;20364;-85
2021/04/03 12:49:52;;;;;;;13.73;3.40;;;;;;;;;;5038182;28;20053;-84
2021/04/03 12:52:18;;;;;;;12.27;2.90;;;;;;;;;;5054817;28;20040;-83
2021/04/03 12:54:44;;;;;;;10.52;2.50;;;;;;;;;;5038045;28;20048;-84
2021/04/03 12:57:10;;;;;;;18.02;2.90;;;;;;;;;;5071371;28;20037;-84
2021/04/03 12:59:36;;;;;;;12.85;3.10;;;;;;;;;;5071429;28;20412;-84
2021/04/03 13:02:02;;;;;;;13.25;2.33;;;;;;;;;;5054746;28;20040;-84
2021/04/03 13:04:28;;;;;;;16.00;2.83;;;;;;;;;;5054620;28;20064;-85
2021/04/03 13:06:54;;;;;;;17.92;2.70;;;;;;;;;;5072352;28;20047;-84
2021/04/03 13:09:22;;;;;;;13.27;2.53;;;;;;;;;;5071187;28;20098;-84
2021/04/03 13:11:50;;;;;;;15.00;2.38;;;;;;;;;;5054615;28;20040;-84
2021/04/03 13:14:16;;;;;;;10.65;2.50;;;;;;;;;;5071211;28;20526;-82
2021/04/03 13:16:42;;;;;;;10.35;2.08;;;;;;;;;;5071071;28;20040;-83
2021/04/03 13:19:08;;;;;;;19.60;2.97;;;;;;;;;;5071168;28;20047;-83
2021/04/03 13:21:34;;;;;;;12.45;2.45;;;;;;;;;;5071207;28;20063;-83
2021/04/03 13:24:00;;;;;;;9.82;2.42;;;;;;;;;;5071047;28;20037;-85
2021/04/03 13:26:26;;;;;;;11.68;2.35;;;;;;;;;;5054450;28;20536;-84
2021/04/03 13:28:52;;;;;;;14.50;2.38;;;;;;;;;;5072071;28;20036;-83
2021/04/03 13:31:18;;;;;;;8.93;2.33;;;;;;;;;;5070964;28;20029;-83
2021/04/03 13:33:44;;;;;;;13.77;2.33;;;;;;;;;;5072196;28;20037;-84
2021/04/03 13:36:10;;;;;;;15.80;2.80;;;;;;;;;;5070750;28;20108;-82
2021/04/03 13:38:36;;;;;;;11.00;2.60;;;;;;;;;;5054064;28;20522;-85
2021/04/03 13:41:02;;;;;;;13.38;2.40;;;;;;;;;;5070899;28;20119;-84
2021/04/03 13:43:28;;;;;;;11.20;3.05;;;;;;;;;;5054120;28;20174;-84
2021/04/03 13:45:55;;;;;;;10.57;2.60;;;;;;;;;;5053442;28;20060;-85
2021/04/03 13:48:21;;;;;;;13.60;2.70;;;;;;;;;;5071532;28;20079;-85
2021/04/03 13:50:47;;;;;;;9.38;2.58;;;;;;;;;;5036996;28;20044;-86
2021/04/03 13:53:13;;;;;;;11.13;2.80;;;;;;;;;;5052496;28;20040;-86
2021/04/03 13:55:39;;;;;;;11.25;2.17;;;;;;;;;;5070217;28;20132;-86
2021/04/03 13:58:05;;;;;;;16.48;2.80;;;;;;;;;;5071507;28;20155;-86
2021/04/03 14:00:31;;;;;;;13.82;2.83;;;;;;;;;;5070682;28;20408;-87
2021/04/03 14:02:57;;;;;;;14.25;2.90;;;;;;;;;;5062980;28;20048;-86
2021/04/03 14:05:23;;;;;;;11.57;3.15;;;;;;;;;;5086925;28;20043;-86
2021/04/03 14:07:49;;;;;;;15.60;3.28;;;;;;;;;;5056621;28;20048;-86
2021/04/03 14:10:17;;;;;;;11.50;2.50;;;;;;;;;;5073999;28;20492;-87
2021/04/03 14:12:43;;;;;;;12.60;2.90;;;;;;;;;;5073876;28;20498;-85
2021/04/03 14:15:09;;;;;;;10.90;2.33;;;;;;;;;;5073655;28;20048;-84
2021/04/03 14:17:36;;;;;;;10.43;2.50;;;;;;;;;;5073840;28;20444;-85
2021/04/03 14:20:02;;;;;;;14.63;2.92;;;;;;;;;;5073864;28;20040;-83
2021/04/03 14:22:28;;;;;;;11.52;2.60;;;;;;;;;;5073513;28;20138;-84
2021/04/03 14:24:54;;;;;;;11.35;2.50;;;;;;;;;;5056715;28;20040;-84
2021/04/03 14:27:20;;;;;;;10.45;2.25;;;;;;;;;;5073643;28;20036;-84
2021/04/03 14:29:46;;;;;;;14.82;3.10;;;;;;;;;;5073895;28;20131;-84
2021/04/03 14:32:12;;;;;;;12.48;3.10;;;;;;;;;;5056726;28;20554;-83